createdAt,value
2018-08-19T00:02:17.385Z,20.60
2018-08-19T00:05:01.900Z,20.57
2018-08-19T00:07:30.963Z,20.38
2018-08-19T00:10:00.077Z,20.29
2018-08-19T00:12:39.229Z,20.28
2018-08-19T00:15:08.340Z,20.19
2018-08-19T00:17:37.427Z,20.09
2018-08-19T00:20:08.649Z,20.05
2018-08-19T00:22:38.039Z,19.63
2018-08-19T00:25:07.188Z,19.54
2018-08-19T00:27:37.714Z,19.62
2018-08-19T00:30:08.909Z,19.86
2018-08-19T00:32:37.997Z,19.88
2018-08-19T00:35:07.039Z,19.75
2018-08-19T00:37:36.181Z,19.57
2018-08-19T00:40:09.964Z,19.76
2018-08-19T00:42:39.142Z,19.73
2018-08-19T00:45:08.195Z,19.29
2018-08-19T00:47:37.246Z,19.68
2018-08-19T00:50:06.454Z,19.73
2018-08-19T00:52:36.468Z,19.52
2018-08-19T00:55:05.767Z,19.02
2018-08-19T00:57:35.316Z,19.00
2018-08-19T01:00:04.784Z,18.93
2018-08-19T01:02:34.219Z,19.00
2018-08-19T01:05:03.354Z,18.85
2018-08-19T01:07:33.932Z,18.89
2018-08-19T01:10:03.055Z,18.91
2018-08-19T01:12:32.203Z,19.01
2018-08-19T01:15:01.293Z,19.12
2018-08-19T01:17:38.553Z,19.17
2018-08-19T01:20:08.621Z,19.09
2018-08-19T01:22:39.781Z,19.20
2018-08-19T01:25:10.109Z,19.14
2018-08-19T01:27:40.088Z,19.07
2018-08-19T01:30:18.723Z,19.01
2018-08-19T01:32:47.885Z,18.96
2018-08-19T01:35:17.298Z,18.75
2018-08-19T01:37:46.397Z,18.73
2018-08-19T01:40:18.003Z,18.62
2018-08-19T01:42:47.781Z,18.66
2018-08-19T01:45:16.860Z,18.76
2018-08-19T01:47:45.939Z,18.74
2018-08-19T01:50:18.525Z,18.80
2018-08-19T01:52:50.228Z,18.86
2018-08-19T01:55:19.716Z,18.93
2018-08-19T01:57:50.105Z,18.90
2018-08-19T02:00:19.597Z,18.80
2018-08-19T02:02:59.773Z,18.71
2018-08-19T02:05:28.922Z,18.61
2018-08-19T02:07:59.581Z,18.47
2018-08-19T02:10:29.396Z,18.42
2018-08-19T02:12:59.026Z,18.31
2018-08-19T02:15:29.249Z,18.33
2018-08-19T02:17:59.438Z,18.27
2018-08-19T02:20:39.121Z,18.21
2018-08-19T02:23:09.642Z,17.84
2018-08-19T02:25:41.732Z,17.70
2018-08-19T02:28:11.301Z,17.80
2018-08-19T02:30:51.430Z,17.66
2018-08-19T02:33:21.655Z,17.81
2018-08-19T02:36:07.790Z,17.94
2018-08-19T02:38:38.041Z,18.02
2018-08-19T02:41:07.276Z,17.90
2018-08-19T02:43:46.172Z,17.93
2018-08-19T02:46:15.224Z,18.07
2018-08-19T02:48:48.332Z,18.00
2018-08-19T02:51:19.750Z,17.76
2018-08-19T02:53:50.070Z,17.72
2018-08-19T02:56:19.819Z,17.71
2018-08-19T02:58:49.409Z,17.66
2018-08-19T03:01:18.842Z,17.74
2018-08-19T03:03:47.907Z,17.59
2018-08-19T03:06:17.034Z,17.63
2018-08-19T03:08:56.426Z,17.57
2018-08-19T03:11:25.529Z,17.69
2018-08-19T03:13:55.095Z,17.76
2018-08-19T03:16:24.192Z,17.72
2018-08-19T03:18:53.719Z,17.63
2018-08-19T03:21:23.219Z,17.62
2018-08-19T03:23:53.545Z,17.62
2018-08-19T03:26:22.656Z,16.56
2018-08-19T03:28:51.765Z,17.70
2018-08-19T03:31:20.869Z,17.70
2018-08-19T03:33:49.987Z,17.61
2018-08-19T03:36:19.041Z,17.60
2018-08-19T03:38:48.187Z,17.59
2018-08-19T03:41:17.249Z,17.61
2018-08-19T03:43:53.489Z,17.73
2018-08-19T03:46:22.673Z,17.68
2018-08-19T03:48:52.454Z,17.68
2018-08-19T03:51:21.559Z,17.55
2018-08-19T03:53:50.746Z,17.63
2018-08-19T03:56:25.218Z,17.72
2018-08-19T03:58:59.429Z,17.73
2018-08-19T04:01:39.997Z,17.65
2018-08-19T04:04:09.367Z,17.50
2018-08-19T04:06:39.628Z,17.41
2018-08-19T04:09:08.789Z,17.37
2018-08-19T04:11:37.919Z,17.26
2018-08-19T04:14:28.268Z,17.19
2018-08-19T04:17:00.074Z,17.14
2018-08-19T04:19:29.979Z,17.19
2018-08-19T04:22:01.116Z,17.27
2018-08-19T04:24:30.701Z,17.25
2018-08-19T04:27:04.740Z,17.15
2018-08-19T04:29:34.517Z,17.07
2018-08-19T04:32:04.426Z,17.07
2018-08-19T04:34:33.543Z,17.01
2018-08-19T04:37:02.644Z,17.05
2018-08-19T04:39:31.722Z,16.91
2018-08-19T04:42:00.835Z,17.00
2018-08-19T04:44:29.944Z,16.94
2018-08-19T04:47:00.023Z,16.91
2018-08-19T04:49:29.109Z,16.98
2018-08-19T04:51:58.210Z,17.20
2018-08-19T04:54:27.314Z,17.11
2018-08-19T04:56:56.402Z,16.97
2018-08-19T04:59:25.621Z,16.90
2018-08-19T05:01:55.362Z,17.01
2018-08-19T05:04:24.385Z,16.95
2018-08-19T05:06:53.482Z,16.73
2018-08-19T05:09:22.579Z,16.80
2018-08-19T05:11:51.676Z,16.94
2018-08-19T05:14:20.817Z,16.99
2018-08-19T05:16:49.911Z,16.95
2018-08-19T05:19:18.974Z,16.96
2018-08-19T05:21:48.041Z,17.05
2018-08-19T05:24:17.133Z,17.04
2018-08-19T05:26:47.619Z,16.96
2018-08-19T05:29:17.035Z,16.89
2018-08-19T05:31:50.020Z,16.87
2018-08-19T05:34:24.462Z,16.96
2018-08-19T05:36:53.532Z,17.03
2018-08-19T05:39:22.629Z,17.04
2018-08-19T05:42:05.379Z,17.17
2018-08-19T05:44:35.783Z,16.84
2018-08-19T05:47:06.218Z,17.05
2018-08-19T05:49:37.122Z,17.14
2018-08-19T05:52:21.754Z,17.26
2018-08-19T05:54:56.272Z,17.42
2018-08-19T05:57:25.373Z,17.48
2018-08-19T05:59:55.026Z,17.52
2018-08-19T06:02:30.187Z,17.68
2018-08-19T06:05:00.245Z,17.78
2018-08-19T06:07:29.484Z,17.86
2018-08-19T06:09:58.835Z,17.97
2018-08-19T06:12:27.919Z,18.07
2018-08-19T06:14:58.688Z,18.19
2018-08-19T06:17:27.791Z,18.30
2018-08-19T06:19:56.858Z,18.28
2018-08-19T06:22:42.452Z,18.35
2018-08-19T06:25:12.426Z,18.46
2018-08-19T06:27:45.579Z,18.59
2018-08-19T06:30:15.740Z,18.62
2018-08-19T06:32:44.805Z,18.65
2018-08-19T06:35:14.166Z,18.75
2018-08-19T06:37:43.344Z,19.06
2018-08-19T06:40:15.330Z,19.33
2018-08-19T06:42:44.537Z,19.32
2018-08-19T06:45:17.053Z,19.33
2018-08-19T06:47:46.230Z,19.47
2018-08-19T06:50:22.821Z,19.20
2018-08-19T06:52:52.180Z,19.18
2018-08-19T06:55:21.325Z,19.40
2018-08-19T06:57:50.491Z,19.32
2018-08-19T07:00:27.129Z,19.41
2018-08-19T07:02:58.279Z,19.39
2018-08-19T07:05:27.370Z,19.46
2018-08-19T07:07:56.470Z,19.66
2018-08-19T07:10:31.803Z,19.98
2018-08-19T07:13:11.224Z,20.01
2018-08-19T07:15:41.878Z,19.86
2018-08-19T07:18:13.825Z,19.78
2018-08-19T07:20:43.588Z,19.74
2018-08-19T07:23:13.103Z,19.78
2018-08-19T07:25:43.323Z,19.82
2018-08-19T07:28:13.664Z,19.83
2018-08-19T07:30:43.112Z,20.05
2018-08-19T07:33:12.860Z,20.38
2018-08-19T07:35:41.949Z,20.63
2018-08-19T07:38:11.193Z,20.82
2018-08-19T07:40:40.282Z,21.05
2018-08-19T07:43:09.597Z,21.19
2018-08-19T07:45:38.675Z,21.35
2018-08-19T07:48:07.803Z,21.57
2018-08-19T07:50:36.850Z,21.63
2018-08-19T07:53:05.987Z,21.76
2018-08-19T07:55:35.097Z,21.99
2018-08-19T07:58:04.153Z,22.01
2018-08-19T08:00:40.018Z,21.97
2018-08-19T08:03:09.332Z,21.97
2018-08-19T08:05:43.738Z,22.12
2018-08-19T08:08:12.812Z,22.34
2018-08-19T08:10:41.955Z,22.39
2018-08-19T08:13:12.532Z,22.47
2018-08-19T08:15:47.065Z,22.53
2018-08-19T08:18:16.210Z,22.63
2018-08-19T08:20:45.304Z,22.70
2018-08-19T08:23:20.136Z,22.70
2018-08-19T08:25:49.561Z,22.66
2018-08-19T08:28:19.249Z,22.82
2018-08-19T08:30:48.402Z,23.02
2018-08-19T08:33:17.521Z,23.12
2018-08-19T08:35:52.081Z,23.16
2018-08-19T08:38:21.200Z,23.34
2018-08-19T08:40:50.577Z,23.50
2018-08-19T08:43:21.293Z,23.53
2018-08-19T08:45:50.407Z,23.74
2018-08-19T08:48:19.507Z,23.85
2018-08-19T08:50:48.642Z,23.78
2018-08-19T08:53:17.810Z,23.85
2018-08-19T08:55:48.369Z,23.90
2018-08-19T08:58:17.519Z,24.21
2018-08-19T09:00:46.842Z,24.35
2018-08-19T09:03:16.046Z,24.33
2018-08-19T09:05:44.991Z,24.38
2018-08-19T09:08:14.101Z,24.45
2018-08-19T09:10:43.214Z,24.50
2018-08-19T09:13:12.361Z,24.66
2018-08-19T09:15:41.438Z,24.72
2018-08-19T09:18:10.588Z,24.78
2018-08-19T09:20:39.709Z,24.83
2018-08-19T09:23:09.000Z,24.90
2018-08-19T09:25:37.992Z,24.84
2018-08-19T09:28:07.102Z,25.08
2018-08-19T09:30:38.261Z,25.20
2018-08-19T09:33:07.397Z,25.33
2018-08-19T09:35:37.711Z,25.18
2018-08-19T09:38:13.479Z,25.18
2018-08-19T09:40:43.321Z,25.42
2018-08-19T09:43:12.418Z,25.56
2018-08-19T09:45:41.921Z,25.51
2018-08-19T09:48:11.699Z,25.47
2018-08-19T09:50:41.964Z,25.53
2018-08-19T09:53:11.154Z,25.71
2018-08-19T09:55:51.264Z,25.92
2018-08-19T09:58:21.712Z,26.11
2018-08-19T10:00:57.162Z,26.31
2018-08-19T10:03:26.255Z,26.29
2018-08-19T10:05:55.386Z,26.47
2018-08-19T10:08:24.826Z,26.53
2018-08-19T10:10:53.936Z,26.58
2018-08-19T10:13:23.039Z,26.69
2018-08-19T10:15:52.508Z,26.88
2018-08-19T10:18:21.922Z,26.96
2018-08-19T10:20:51.417Z,27.07
2018-08-19T10:23:24.226Z,27.22
2018-08-19T10:25:53.756Z,27.23
2018-08-19T10:28:22.826Z,27.20
2018-08-19T10:30:58.808Z,27.35
2018-08-19T10:33:27.982Z,27.41
2018-08-19T10:35:58.334Z,27.51
2018-08-19T10:38:27.601Z,27.52
2018-08-19T10:41:03.740Z,27.66
2018-08-19T10:43:33.207Z,27.85
2018-08-19T10:46:02.580Z,27.91
2018-08-19T10:48:31.695Z,27.82
2018-08-19T10:51:02.626Z,27.88
2018-08-19T10:53:31.743Z,27.91
2018-08-19T10:56:02.050Z,28.01
2018-08-19T10:58:31.128Z,28.06
2018-08-19T11:01:00.262Z,28.21
2018-08-19T11:03:30.708Z,28.33
2018-08-19T11:05:59.913Z,28.39
2018-08-19T11:08:29.447Z,28.44
2018-08-19T11:10:59.771Z,28.41
2018-08-19T11:13:29.997Z,28.49
2018-08-19T11:15:59.465Z,28.50
2018-08-19T11:18:39.419Z,28.56
2018-08-19T11:21:10.632Z,28.64
2018-08-19T11:23:41.208Z,28.78
2018-08-19T11:26:10.820Z,28.92
2018-08-19T11:28:51.181Z,28.99
2018-08-19T11:31:26.169Z,28.82
2018-08-19T11:33:56.446Z,29.00
2018-08-19T11:36:34.620Z,29.11
2018-08-19T11:39:05.702Z,29.14
2018-08-19T11:41:35.109Z,29.26
2018-08-19T11:44:06.263Z,29.29
2018-08-19T11:46:35.848Z,29.39
2018-08-19T11:49:09.114Z,29.45
2018-08-19T11:51:46.251Z,29.52
2018-08-19T11:54:16.630Z,29.59
2018-08-19T11:57:05.836Z,29.56
2018-08-19T11:59:39.074Z,29.65
2018-08-19T12:02:22.551Z,29.72
2018-08-19T12:04:51.645Z,29.80
2018-08-19T12:07:20.916Z,29.71
2018-08-19T12:09:55.974Z,29.76
2018-08-19T12:12:41.582Z,29.94
2018-08-19T12:15:10.701Z,30.01
2018-08-19T12:17:39.790Z,30.11
2018-08-19T12:20:08.873Z,30.38
2018-08-19T12:22:39.578Z,30.37
2018-08-19T12:25:08.797Z,30.56
2018-08-19T12:27:38.179Z,30.39
2018-08-19T12:30:11.903Z,30.37
2018-08-19T12:32:41.000Z,30.54
2018-08-19T12:35:10.092Z,30.55
2018-08-19T12:37:39.326Z,30.80
2018-08-19T12:40:08.666Z,30.88
2018-08-19T12:42:43.014Z,31.16
2018-08-19T12:45:12.341Z,31.35
2018-08-19T12:47:41.724Z,31.39
2018-08-19T12:50:14.426Z,31.41
2018-08-19T12:52:43.715Z,31.31
2018-08-19T12:55:14.871Z,31.39
2018-08-19T12:57:44.597Z,31.42
2018-08-19T13:00:31.863Z,31.54
2018-08-19T13:03:01.452Z,31.71
2018-08-19T13:05:30.572Z,31.79
2018-08-19T13:07:59.660Z,31.95
2018-08-19T13:10:35.394Z,31.83
2018-08-19T13:13:05.779Z,31.94
2018-08-19T13:15:34.830Z,31.99
2018-08-19T13:18:03.957Z,31.94
2018-08-19T13:20:33.002Z,32.23
2018-08-19T13:23:03.479Z,32.62
2018-08-19T13:25:33.033Z,32.44
2018-08-19T13:28:02.145Z,32.40
2018-08-19T13:30:31.317Z,32.57
2018-08-19T13:33:00.410Z,32.71
2018-08-19T13:35:29.947Z,32.50
2018-08-19T13:37:58.992Z,32.45
2018-08-19T13:40:28.108Z,32.52
2018-08-19T13:42:57.201Z,32.48
2018-08-19T13:45:26.681Z,32.58
2018-08-19T13:47:55.705Z,32.82
2018-08-19T13:50:24.817Z,32.83
2018-08-19T13:52:53.898Z,32.83
2018-08-19T13:55:23.042Z,32.81
2018-08-19T13:57:52.139Z,32.83
2018-08-19T14:00:22.818Z,32.85
2018-08-19T14:02:52.233Z,32.88
2018-08-19T14:05:21.366Z,33.34
2018-08-19T14:07:50.502Z,33.43
2018-08-19T14:10:19.593Z,33.52
2018-08-19T14:12:48.698Z,33.39
2018-08-19T14:15:17.798Z,33.26
2018-08-19T14:17:47.341Z,33.41
2018-08-19T14:20:16.465Z,33.50
2018-08-19T14:22:45.521Z,33.49
2018-08-19T14:25:14.631Z,33.42
2018-08-19T14:27:43.694Z,33.58
2018-08-19T14:30:13.142Z,33.71
2018-08-19T14:32:43.712Z,33.78
2018-08-19T14:35:12.809Z,33.27
2018-08-19T14:37:42.147Z,33.73
2018-08-19T14:40:16.024Z,33.88
2018-08-19T14:42:45.300Z,33.68
2018-08-19T14:45:14.426Z,33.80
2018-08-19T14:47:43.531Z,34.06
2018-08-19T14:50:18.171Z,34.14
2018-08-19T14:52:48.418Z,34.20
2018-08-19T14:55:17.527Z,34.12
2018-08-19T14:57:46.632Z,34.14
2018-08-19T15:00:16.746Z,34.50
2018-08-19T15:02:45.841Z,34.69
2018-08-19T15:05:19.548Z,34.64
2018-08-19T15:07:48.993Z,34.71
2018-08-19T15:10:20.756Z,34.71
2018-08-19T15:12:49.985Z,34.66
2018-08-19T15:15:19.048Z,34.74
2018-08-19T15:17:56.705Z,34.77
2018-08-19T15:20:29.951Z,34.91
2018-08-19T15:23:09.041Z,35.12
2018-08-19T15:25:38.268Z,35.04
2018-08-19T15:28:07.467Z,35.27
2018-08-19T15:30:39.279Z,35.19
2018-08-19T15:33:09.146Z,35.41
2018-08-19T15:35:38.150Z,35.29
2018-08-19T15:38:07.287Z,35.33
2018-08-19T15:40:41.364Z,35.43
2018-08-19T15:43:11.610Z,35.19
2018-08-19T15:45:41.054Z,35.49
2018-08-19T15:48:10.223Z,35.84
2018-08-19T15:50:39.305Z,35.75
2018-08-19T15:53:09.628Z,36.05
2018-08-19T15:55:39.393Z,36.19
2018-08-19T15:58:08.650Z,36.37
2018-08-19T16:00:40.005Z,36.59
2018-08-19T16:03:10.495Z,36.48
2018-08-19T16:05:39.571Z,36.39
2018-08-19T16:08:08.763Z,36.60
2018-08-19T16:10:37.930Z,36.67
2018-08-19T16:13:09.003Z,35.95
2018-08-19T16:15:38.177Z,36.26
2018-08-19T16:18:07.821Z,36.48
2018-08-19T16:20:37.174Z,36.42
2018-08-19T16:23:06.469Z,36.48
2018-08-19T16:25:35.654Z,36.55
2018-08-19T16:28:05.187Z,36.44
2018-08-19T16:30:34.685Z,36.00
2018-08-19T16:33:04.042Z,36.02
2018-08-19T16:35:33.248Z,36.23
2018-08-19T16:38:02.372Z,36.65
2018-08-19T16:40:32.551Z,36.63
2018-08-19T16:43:01.727Z,36.94
2018-08-19T16:45:30.997Z,37.21
2018-08-19T16:48:00.062Z,36.89
2018-08-19T16:50:29.346Z,36.97
2018-08-19T16:52:58.966Z,37.12
2018-08-19T16:55:28.033Z,37.08
2018-08-19T16:57:57.245Z,36.81
2018-08-19T17:00:26.282Z,36.38
2018-08-19T17:02:55.640Z,35.93
2018-08-19T17:05:30.630Z,35.27
2018-08-19T17:07:59.738Z,34.62
2018-08-19T17:10:35.430Z,34.12
2018-08-19T17:13:04.802Z,33.74
2018-08-19T17:15:33.868Z,33.43
2018-08-19T17:18:02.970Z,33.24
2018-08-19T17:20:32.066Z,32.96
2018-08-19T17:23:01.192Z,32.80
2018-08-19T17:25:30.269Z,32.56
2018-08-19T17:28:05.135Z,32.36
2018-08-19T17:30:34.252Z,32.22
2018-08-19T17:33:08.638Z,32.11
2018-08-19T17:35:38.341Z,31.64
2018-08-19T17:38:07.825Z,31.25
2018-08-19T17:40:37.790Z,31.34
2018-08-19T17:43:07.185Z,31.57
2018-08-19T17:45:37.456Z,31.61
2018-08-19T17:48:06.567Z,31.64
2018-08-19T17:50:37.921Z,31.29
2018-08-19T17:53:07.730Z,31.25
2018-08-19T17:55:36.804Z,31.03
2018-08-19T17:58:06.012Z,31.09
2018-08-19T18:00:35.320Z,31.12
2018-08-19T18:03:04.454Z,31.01
2018-08-19T18:05:34.171Z,31.02
2018-08-19T18:08:04.374Z,30.90
2018-08-19T18:10:33.473Z,30.90
2018-08-19T18:13:02.529Z,30.89
2018-08-19T18:15:31.627Z,30.85
2018-08-19T18:18:05.596Z,30.84
2018-08-19T18:20:36.196Z,30.61
2018-08-19T18:28:11.469Z,30.35
2018-08-19T18:30:40.692Z,30.27
2018-08-19T18:33:09.778Z,30.18
2018-08-19T18:35:38.889Z,30.12
2018-08-19T18:38:18.136Z,29.96
2018-08-19T18:40:47.245Z,29.92
2018-08-19T18:43:16.464Z,29.83
2018-08-19T18:45:45.717Z,29.61
2018-08-19T18:48:17.898Z,29.51
2018-08-19T18:50:47.223Z,29.53
2018-08-19T18:53:16.405Z,29.53
2018-08-19T18:55:45.842Z,29.40
2018-08-19T18:58:15.044Z,29.28
2018-08-19T19:00:49.946Z,29.19
2018-08-19T19:03:19.142Z,29.22
2018-08-19T19:05:48.288Z,29.19
2018-08-19T19:08:18.502Z,29.18
2018-08-19T19:10:55.572Z,29.14
2018-08-19T19:13:26.341Z,29.13
2018-08-19T19:15:55.588Z,28.95
2018-08-19T19:18:25.967Z,28.94
2018-08-19T19:21:02.216Z,28.94
2018-08-19T19:23:37.730Z,28.90
2018-08-19T19:26:07.429Z,28.81
2018-08-19T19:28:36.696Z,28.74
2018-08-19T19:31:11.359Z,28.65
2018-08-19T19:33:40.546Z,28.48
2018-08-19T19:36:14.929Z,28.42
2018-08-19T19:38:49.459Z,28.23
2018-08-19T19:41:22.603Z,28.17
2018-08-19T19:43:51.753Z,27.99
2018-08-19T19:46:21.378Z,27.77
2018-08-19T19:48:50.644Z,27.65
2018-08-19T19:51:19.768Z,27.63
2018-08-19T19:53:48.902Z,27.65
2018-08-19T19:56:19.263Z,27.58
2018-08-19T19:58:49.615Z,27.47
2018-08-19T20:01:18.868Z,27.42
2018-08-19T20:03:52.645Z,27.35
2018-08-19T20:06:22.260Z,27.34
2018-08-19T20:08:51.540Z,27.31
2018-08-19T20:11:26.199Z,27.21
2018-08-19T20:13:59.635Z,27.14
2018-08-19T20:16:28.705Z,27.07
2018-08-19T20:18:57.844Z,26.98
2018-08-19T20:21:28.215Z,26.91
2018-08-19T20:23:58.478Z,26.90
2018-08-19T20:26:28.185Z,26.85
2018-08-19T20:28:58.976Z,26.73
2018-08-19T20:31:28.173Z,26.57
2018-08-19T20:33:57.370Z,26.56
2018-08-19T20:36:27.211Z,26.30
2018-08-19T20:38:56.357Z,26.30
2018-08-19T20:41:25.737Z,26.30
2018-08-19T20:43:54.930Z,26.17
2018-08-19T20:46:24.105Z,26.16
2018-08-19T20:48:53.209Z,26.05
2018-08-19T20:51:22.372Z,26.05
2018-08-19T20:53:51.558Z,25.95
2018-08-19T20:56:20.716Z,25.91
2018-08-19T20:58:49.787Z,25.95
2018-08-19T21:01:24.390Z,25.77
2018-08-19T21:03:57.545Z,25.59
2018-08-19T21:06:26.958Z,25.40
2018-08-19T21:08:56.167Z,25.37
2018-08-19T21:11:25.311Z,25.34
2018-08-19T21:13:54.385Z,25.43
2018-08-19T21:16:23.793Z,25.45
2018-08-19T21:18:53.121Z,25.30
2018-08-19T21:21:22.872Z,25.06
2018-08-19T21:23:51.986Z,25.01
2018-08-19T21:26:21.233Z,24.95
2018-08-19T21:28:56.516Z,24.83
2018-08-19T21:31:25.591Z,24.78
2018-08-19T21:33:54.672Z,24.69
2018-08-19T21:36:23.804Z,24.59
2018-08-19T21:38:52.876Z,24.55
2018-08-19T21:41:21.931Z,24.52
2018-08-19T21:43:50.994Z,24.49
2018-08-19T21:46:20.294Z,24.40
2018-08-19T21:48:49.999Z,24.33
2018-08-19T21:51:19.025Z,24.34
2018-08-19T21:53:48.496Z,24.32
2018-08-19T21:56:17.590Z,24.07
2018-08-19T21:58:46.688Z,23.95
2018-08-19T22:01:21.000Z,23.75
2018-08-19T22:03:50.542Z,23.63
2018-08-19T22:06:19.586Z,24.15
2018-08-19T22:08:48.762Z,24.47
2018-08-19T22:11:17.810Z,24.20
2018-08-19T22:13:46.992Z,23.94
2018-08-19T22:16:16.215Z,23.84
2018-08-19T22:18:45.354Z,23.78
2018-08-19T22:21:16.669Z,23.68
2018-08-19T22:23:47.785Z,23.39
2018-08-19T22:26:18.061Z,23.26
2018-08-19T22:29:01.354Z,23.20
2018-08-19T22:31:30.824Z,23.27
2018-08-19T22:33:59.948Z,23.01
2018-08-19T22:36:29.315Z,22.99
2018-08-19T22:38:58.401Z,22.96
2018-08-19T22:41:29.083Z,22.94
2018-08-19T22:43:58.575Z,22.87
2018-08-19T22:46:28.322Z,22.89
2018-08-19T22:48:57.926Z,22.65
2018-08-19T22:51:30.426Z,22.65
2018-08-19T22:53:59.485Z,22.70
2018-08-19T22:56:28.665Z,22.65
2018-08-19T22:58:57.781Z,22.74
2018-08-19T23:01:31.088Z,22.58
2018-08-19T23:04:01.532Z,22.55
2018-08-19T23:06:31.365Z,22.61
2018-08-19T23:09:00.777Z,22.46
2018-08-19T23:11:35.773Z,22.50
2018-08-19T23:14:17.410Z,22.38
2018-08-19T23:16:46.577Z,22.30
2018-08-19T23:19:17.085Z,22.08
2018-08-19T23:21:46.131Z,21.92
2018-08-19T23:24:15.174Z,21.93
2018-08-19T23:26:44.285Z,22.06
2018-08-19T23:29:13.357Z,21.99
2018-08-19T23:31:42.429Z,21.97
2018-08-19T23:34:11.761Z,21.89
2018-08-19T23:36:40.898Z,21.85
2018-08-19T23:39:10.570Z,21.82
2018-08-19T23:41:39.684Z,21.62
2018-08-19T23:44:09.161Z,21.46
2018-08-19T23:46:38.291Z,21.39
2018-08-19T23:49:07.348Z,21.25
2018-08-19T23:51:36.698Z,21.24
2018-08-19T23:54:05.807Z,21.30
2018-08-19T23:56:34.954Z,21.36
2018-08-19T23:59:04.163Z,21.37
